Flight Track Log - Related Links

Times and Time Zones

All times are in EDT time to prevent confusion due to time zone crossing. See the AWE801 flight status page for this flight to view local times or setup timezone preferences in your user account.

Time Position Orientation Groundspeed Altitude Reporting Facility
EDT Latitude Longitude Course Direction KTS MPH feet Rate Location/Type
Thu 09:26:34 PM -22.7470 -43.1640 44° Northeast 201 231 3,400  Level FlightAware ADS-B
Thu 09:26:54 PM -22.7330 -43.1480 47° Northeast 231 266 3,600 1,000 Climbing FlightAware ADS-B
Thu 09:27:04 PM -22.7290 -43.1330 74° East 242 278 3,900 1,800 Climbing FlightAware ADS-B
Thu 09:27:54 PM -22.7220 -43.0760 82° East 270 311 5,400 2,031 Climbing FlightAware ADS-B
Thu 09:28:09 PM -22.7200 -43.0530 85° East 274 315 6,100 2,700 Climbing FlightAware ADS-B
Thu 09:28:34 PM -22.7180 -43.0140 87° East 286 329 7,200 2,509 Climbing FlightAware ADS-B
Thu 09:29:04 PM -22.7160 -42.9780 87° East 287 330 8,400 2,727 Climbing FlightAware ADS-B
Thu 09:29:29 PM -22.7130 -42.9320 86° East 289 333 9,700 2,700 Climbing FlightAware ADS-B
Thu 09:29:44 PM -22.7060 -42.9090 72° East 297 342 10,200 1,350 Climbing FlightAware ADS-B
Thu 09:30:09 PM -22.6830 -42.8890 39° Northeast 318 366 10,600 1,200 Climbing FlightAware ADS-B
Thu 09:30:59 PM -22.6060 -42.9110 345° North 365 420 11,700 1,467 Climbing FlightAware ADS-B
Thu 09:31:39 PM -22.5460 -42.9580 324° Northwest 398 458 12,800 1,976 Climbing FlightAware ADS-B
Thu 09:32:24 PM -22.4740 -43.0050 329° Northwest 412 474 14,500 2,259 Climbing FlightAware ADS-B
Thu 09:33:04 PM -22.4070 -43.0470 330° Northwest 420 483 16,000 2,250 Climbing FlightAware ADS-B
Thu 09:33:44 PM -22.3390 -43.0900 330° Northwest 426 490 17,500 1,976 Climbing FlightAware ADS-B
Thu 09:34:29 PM -22.2640 -43.1360 330° Northwest 437 503 18,800 1,835 Climbing FlightAware ADS-B
Thu 09:35:09 PM -22.1910 -43.1820 330° Northwest 448 516 20,100 1,800 Climbing FlightAware ADS-B
Thu 09:35:49 PM -22.1190 -43.2270 330° Northwest 457 526 21,200 1,754 Climbing FlightAware ADS-B
Thu 09:36:14 PM -22.0750 -43.2540 330° Northwest 461 531 22,000 686 Climbing FlightAware ADS-B
Thu 09:36:59 PM -22.0000 -43.3020 329° Northwest 461 531 22,000  Level FlightAware ADS-B
Thu 09:37:29 PM -21.9540 -43.3330 328° Northwest 461 531 22,000  Level FlightAware ADS-B
Thu 09:38:09 PM -21.8910 -43.3730 329° Northwest 461 531 22,000  Level FlightAware ADS-B
Thu 09:38:49 PM -21.8290 -43.4130 329° Northwest 461 531 22,000  Level FlightAware ADS-B
Thu 09:39:29 PM -21.7670 -43.4530 329° Northwest 461 531 22,000  Level FlightAware ADS-B
Thu 09:40:09 PM -21.7050 -43.4940 328° Northwest 461 531 22,000 3,600 Level FlightAware ADS-B
Thu 09:41:09 PM -21.5050 -43.5880 336° Northwest 477 549 28,000 4,057 Climbing FlightAware ADS-B
Thu 09:41:54 PM -21.4150 -43.6110 347° North 479 551 29,100 1,600 Climbing FlightAware ADS-B
Thu 09:42:39 PM -21.3110 -43.6370 347° North 478 550 30,400 1,760 Climbing FlightAware ADS-B
Thu 09:43:09 PM -21.2480 -43.6520 347° North 476 548 31,300 1,760 Climbing FlightAware ADS-B
Thu 09:43:54 PM -21.1540 -43.6750 347° North 468 539 32,600 1,642 Climbing FlightAware ADS-B
Thu 09:44:44 PM -21.0560 -43.7000 347° North 460 529 33,900 933 Climbing FlightAware ADS-B
Thu 09:45:24 PM -20.9680 -43.7220 347° North 463 533 34,000 675 Climbing FlightAware ADS-B
Thu 09:46:04 PM -20.8830 -43.7430 347° North 455 524 34,800 706 Climbing FlightAware ADS-B
Thu 09:46:49 PM -20.7810 -43.7690 347° North 445 512 35,000 133 Climbing FlightAware ADS-B
Thu 09:47:34 PM -20.6940 -43.7910 347° North 442 509 35,000  Level FlightAware ADS-B
Thu 09:48:09 PM -20.6210 -43.8090 347° North 443 510 35,000  Level FlightAware ADS-B
Thu 09:48:54 PM -20.5330 -43.8300 347° North 447 514 35,000  Level FlightAware ADS-B
Thu 09:49:39 PM -20.4390 -43.8520 348° North 451 519 35,000  Level FlightAware ADS-B
Thu 09:50:19 PM -20.3600 -43.8710 347° North 453 521 35,000  Level FlightAware ADS-B
Thu 09:51:04 PM -20.2670 -43.8940 347° North 454 522 35,000  Level FlightAware ADS-B
Thu 09:51:44 PM -20.1840 -43.9160 346° North 454 522 35,000  Level FlightAware ADS-B
Thu 09:52:24 PM -20.1030 -43.9370 346° North 455 524 35,000  Level FlightAware ADS-B
Thu 09:53:09 PM -20.0090 -43.9590 348° North 454 522 35,000  Level FlightAware ADS-B
Thu 09:53:49 PM -19.9270 -43.9780 348° North 454 522 35,000  Level FlightAware ADS-B
Thu 09:54:34 PM -19.8330 -43.9970 349° North 454 522 35,000  Level FlightAware ADS-B
Thu 09:55:14 PM -19.7520 -44.0100 351° North 454 522 35,000  Level FlightAware ADS-B
Thu 09:55:54 PM -19.6670 -44.0230 352° North 452 520 35,000  Level FlightAware ADS-B
Thu 09:56:34 PM -19.5860 -44.0350 352° North 451 519 35,000  Level FlightAware ADS-B
Thu 09:57:19 PM -19.4970 -44.0530 349° North 449 517 35,000  Level FlightAware ADS-B
Thu 09:57:59 PM -19.4280 -44.0670 349° North 449 517 35,000  Level FlightAware ADS-B
Thu 09:58:39 PM -19.3590 -44.0810 349° North 449 517 35,000  Level FlightAware ADS-B
Thu 09:59:19 PM -19.2890 -44.0950 349° North 449 517 35,000  Level FlightAware ADS-B
Thu 10:00:09 PM -19.2030 -44.1130 349° North 449 517 35,000  Level FlightAware ADS-B
Thu 10:00:49 PM -19.1330 -44.1270 349° North 449 517 35,000  Level FlightAware ADS-B
Thu 10:01:29 PM -19.0640 -44.1420 348° North 449 517 35,000  Level FlightAware ADS-B
Thu 10:02:09 PM -18.9950 -44.1560 349° North 449 517 35,000  Level FlightAware ADS-B
Thu 10:02:49 PM -18.9250 -44.1700 349° North 449 517 35,000  Level FlightAware ADS-B
Thu 10:03:39 PM -18.8390 -44.1880 349° North 449 517 35,000  Level FlightAware ADS-B
Thu 10:04:19 PM -18.7690 -44.2020 349° North 449 517 35,000  Level FlightAware ADS-B
Thu 10:04:59 PM -18.7000 -44.2160 349° North 449 517 35,000  Level FlightAware ADS-B
Thu 10:05:39 PM -18.6310 -44.2310 348° North 449 517 35,000  Level FlightAware ADS-B
Thu 10:06:19 PM -18.5610 -44.2450 349° North 449 517 35,000  Level FlightAware ADS-B
Thu 10:08:00 PM -18.4014 -44.3538 327° Northwest  Level Estimated
Thu 10:09:00 PM -18.3065 -44.4183 327° Northwest  Level Estimated
Thu 10:10:00 PM -18.2117 -44.4827 327° Northwest  Level Estimated
Thu 10:11:00 PM -18.1168 -44.5471 327° Northwest  Level Estimated
Thu 10:12:00 PM -18.0218 -44.6114 327° Northwest  Level Estimated
Thu 10:13:00 PM -17.9269 -44.6756 327° Northwest  Level Estimated
Thu 10:14:00 PM -17.8319 -44.7398 327° Northwest  Level Estimated
Thu 10:15:00 PM -17.7369 -44.8039 327° Northwest  Level Estimated
Thu 10:16:00 PM -17.6420 -44.8679 327° Northwest  Level Estimated
Thu 10:17:00 PM -17.5469 -44.9319 327° Northwest  Level Estimated
Thu 10:18:00 PM -17.4519 -44.9958 327° Northwest  Level Estimated
Thu 10:19:00 PM -17.3568 -45.0596 327° Northwest  Level Estimated
Thu 10:20:00 PM -17.2617 -45.1233 327° Northwest  Level Estimated
Thu 10:21:00 PM -17.1667 -45.1870 327° Northwest  Level Estimated
Thu 10:22:00 PM -17.0715 -45.2507 327° Northwest  Level Estimated
Thu 10:23:00 PM -16.9764 -45.3143 327° Northwest  Level Estimated
Thu 10:24:00 PM -16.8812 -45.3778 327° Northwest  Level Estimated
Thu 10:25:00 PM -16.7861 -45.4412 327° Northwest  Level Estimated
Thu 10:26:00 PM -16.6908 -45.5046 327° Northwest  Level Estimated
Thu 10:27:00 PM -16.5956 -45.5679 327° Northwest  Level Estimated
Thu 10:28:00 PM -16.5004 -45.6311 328° Northwest  Level Estimated
Thu 10:29:00 PM -16.4051 -45.6943 328° Northwest  Level Estimated
Thu 10:30:00 PM -16.3099 -45.7574 328° Northwest  Level Estimated
Thu 10:31:00 PM -16.2146 -45.8205 328° Northwest  Level Estimated
Thu 10:32:00 PM -16.1192 -45.8835 328° Northwest  Level Estimated
Thu 10:33:00 PM -16.0239 -45.9464 328° Northwest  Level Estimated
Thu 10:34:00 PM -15.9285 -46.0093 328° Northwest  Level Estimated
Thu 10:35:00 PM -15.8332 -46.0721 328° Northwest  Level Estimated
Thu 10:36:00 PM -15.7378 -46.1349 328° Northwest  Level Estimated
Thu 10:37:00 PM -15.6424 -46.1976 328° Northwest  Level Estimated
Thu 10:38:00 PM -15.5470 -46.2602 328° Northwest  Level Estimated
Thu 10:39:00 PM -15.4515 -46.3228 328° Northwest  Level Estimated
Thu 10:40:00 PM -15.3561 -46.3853 328° Northwest  Level Estimated
Thu 10:41:00 PM -15.2606 -46.4478 328° Northwest  Level Estimated
Thu 10:42:00 PM -15.1651 -46.5102 328° Northwest  Level Estimated
Thu 10:43:00 PM -15.0696 -46.5726 328° Northwest  Level Estimated
Thu 10:44:00 PM -14.9740 -46.6349 328° Northwest  Level Estimated
Thu 10:45:00 PM -14.8785 -46.6972 328° Northwest  Level Estimated
Thu 10:46:00 PM -14.7829 -46.7593 328° Northwest  Level Estimated
Thu 10:47:00 PM -14.6874 -46.8215 328° Northwest  Level Estimated
Thu 10:48:00 PM -14.5918 -46.8836 328° Northwest  Level Estimated
Thu 10:49:00 PM -14.4962 -46.9456 328° Northwest  Level Estimated
Thu 10:50:00 PM -14.4005 -47.0076 328° Northwest  Level Estimated
Thu 10:51:00 PM -14.3049 -47.0695 328° Northwest  Level Estimated
Thu 10:52:00 PM -14.2092 -47.1314 328° Northwest  Level Estimated
Thu 10:53:00 PM -14.1135 -47.1932 328° Northwest  Level Estimated
Thu 10:54:00 PM -14.0178 -47.2550 328° Northwest  Level Estimated
Thu 10:55:00 PM -13.9221 -47.3167 328° Northwest  Level Estimated
Thu 10:56:00 PM -13.8264 -47.3783 328° Northwest  Level Estimated
Thu 10:57:00 PM -13.7307 -47.4399 328° Northwest  Level Estimated
Thu 10:58:00 PM -13.6349 -47.5015 328° Northwest  Level Estimated
Thu 10:59:00 PM -13.5392 -47.5630 328° Northwest  Level Estimated
Thu 11:00:00 PM -13.4434 -47.6245 328° Northwest  Level Estimated
Thu 11:01:00 PM -13.3476 -47.6859 328° Northwest  Level Estimated
Thu 11:02:00 PM -13.2518 -47.7472 328° Northwest  Level Estimated
Thu 11:03:00 PM -13.1559 -47.8086 328° Northwest  Level Estimated
Thu 11:04:00 PM -13.0601 -47.8698 328° Northwest  Level Estimated
Thu 11:05:00 PM -12.9642 -47.9310 328° Northwest  Level Estimated
Thu 11:06:00 PM -12.8684 -47.9922 328° Northwest  Level Estimated
Thu 11:07:00 PM -12.7725 -48.0533 328° Northwest  Level Estimated
Thu 11:08:00 PM -12.6766 -48.1144 328° Northwest  Level Estimated
Thu 11:09:00 PM -12.5807 -48.1754 328° Northwest  Level Estimated
Thu 11:10:00 PM -12.4847 -48.2364 328° Northwest  Level Estimated
Thu 11:11:00 PM -12.3888 -48.2974 328° Northwest  Level Estimated
Thu 11:12:00 PM -12.2928 -48.3583 328° Northwest  Level Estimated
Thu 11:13:00 PM -12.1969 -48.4191 328° Northwest  Level Estimated
Thu 11:14:00 PM -12.1009 -48.4799 328° Northwest  Level Estimated
Thu 11:15:00 PM -12.0049 -48.5407 328° Northwest  Level Estimated
Thu 11:16:00 PM -11.9089 -48.6014 328° Northwest  Level Estimated
Thu 11:17:00 PM -11.8129 -48.6621 328° Northwest  Level Estimated
Thu 11:18:00 PM -11.7169 -48.7228 328° Northwest  Level Estimated
Thu 11:19:00 PM -11.6208 -48.7834 328° Northwest  Level Estimated
Thu 11:20:00 PM -11.5247 -48.8439 328° Northwest  Level Estimated
Thu 11:21:00 PM -11.4287 -48.9044 328° Northwest  Level Estimated
Thu 11:22:00 PM -11.3326 -48.9649 328° Northwest  Level Estimated
Thu 11:22:19 PM -9.0920 -46.6100 328° Northwest 460 529 35,000  Level FlightAware ADS-B
Thu 11:23:00 PM -11.2365 -49.0253 328° Northwest  Level Estimated
Thu 11:23:09 PM -8.9870 -46.6360 346° North 460 529 35,000  Level FlightAware ADS-B
Thu 11:23:49 PM -8.9170 -46.6530 347° North 460 529 35,000  Level FlightAware ADS-B
Thu 11:24:29 PM -8.8460 -46.6710 346° North 460 529 35,000  Level FlightAware ADS-B
Thu 11:25:19 PM -8.7590 -46.6930 346° North 460 529 35,000  Level FlightAware ADS-B
Thu 11:25:59 PM -8.6880 -46.7110 346° North 460 529 35,000  Level FlightAware ADS-B
Thu 11:26:39 PM -8.6180 -46.7290 346° North 460 529 35,000  Level FlightAware ADS-B
Thu 11:27:19 PM -8.5480 -46.7460 346° North 460 529 35,000  Level FlightAware ADS-B
Thu 11:27:59 PM -8.4780 -46.7640 346° North 460 529 35,000  Level FlightAware ADS-B
Thu 11:28:49 PM -8.3900 -46.7860 346° North 460 529 35,000  Level FlightAware ADS-B
Thu 11:29:29 PM -8.3200 -46.8040 346° North 460 529 35,000  Level FlightAware ADS-B
Thu 11:30:09 PM -8.2500 -46.8220 346° North 460 529 35,000  Level FlightAware ADS-B
Thu 11:30:49 PM -8.1790 -46.8390 347° North 460 529 35,000  Level FlightAware ADS-B
Thu 11:31:29 PM -8.1090 -46.8570 346° North 460 529 35,000  Level FlightAware ADS-B
Thu 11:32:19 PM -8.0210 -46.8790 346° North 460 529 35,000 Level FlightAware ADS-B
Thu 11:34:00 PM -7.8644 -46.9877 325° Northwest  Level Estimated
Thu 11:35:00 PM -7.7714 -47.0523 325° Northwest  Level Estimated
Thu 11:36:00 PM -7.6783 -47.1168 326° Northwest  Level Estimated
Thu 11:37:00 PM -7.5852 -47.1813 326° Northwest  Level Estimated
Thu 11:38:00 PM -7.4922 -47.2458 326° Northwest  Level Estimated
Thu 11:39:00 PM -7.3991 -47.3102 326° Northwest  Level Estimated
Thu 11:40:00 PM -7.3060 -47.3746 326° Northwest  Level Estimated
Thu 11:41:00 PM -7.2129 -47.4390 326° Northwest  Level Estimated
Thu 11:42:00 PM -7.1198 -47.5033 326° Northwest  Level Estimated
Thu 11:43:00 PM -7.0267 -47.5677 326° Northwest  Level Estimated
Thu 11:44:00 PM -6.9335 -47.6320 326° Northwest  Level Estimated
Thu 11:45:00 PM -6.8404 -47.6963 326° Northwest  Level Estimated
Thu 11:46:00 PM -6.7473 -47.7605 326° Northwest  Level Estimated
Thu 11:47:00 PM -6.6541 -47.8248 326° Northwest  Level Estimated
Thu 11:48:00 PM -6.5610 -47.8890 326° Northwest  Level Estimated
Thu 11:49:00 PM -6.4678 -47.9532 326° Northwest  Level Estimated
Thu 11:50:00 PM -6.3746 -48.0173 326° Northwest  Level Estimated
Thu 11:51:00 PM -6.2814 -48.0815 326° Northwest  Level Estimated
Thu 11:52:00 PM -6.1883 -48.1456 326° Northwest  Level Estimated
Thu 11:53:00 PM -6.0950 -48.2096 326° Northwest  Level Estimated
Thu 11:54:00 PM -6.0018 -48.2737 326° Northwest  Level Estimated
Thu 11:55:00 PM -5.9086 -48.3378 326° Northwest  Level Estimated
Thu 11:56:00 PM -5.8154 -48.4018 326° Northwest  Level Estimated
Thu 11:57:00 PM -5.7222 -48.4658 326° Northwest  Level Estimated
Thu 11:58:00 PM -5.6289 -48.5298 326° Northwest  Level Estimated
Thu 11:59:00 PM -5.5357 -48.5937 326° Northwest  Level Estimated
Fri 12:00:00 AM -5.4425 -48.6577 326° Northwest  Level Estimated
Fri 12:01:00 AM -5.3492 -48.7216 326° Northwest  Level Estimated
Fri 12:02:00 AM -5.2559 -48.7855 326° Northwest  Level Estimated
Fri 12:03:00 AM -5.1627 -48.8494 326° Northwest  Level Estimated
Fri 12:04:00 AM -5.0694 -48.9132 326° Northwest  Level Estimated
Fri 12:05:00 AM -4.9761 -48.9771 326° Northwest  Level Estimated
Fri 12:06:00 AM -4.8828 -49.0409 326° Northwest  Level Estimated
Fri 12:07:00 AM -4.7895 -49.1047 326° Northwest  Level Estimated
Fri 12:08:00 AM -4.6962 -49.1685 326° Northwest  Level Estimated
Fri 12:09:00 AM -4.6029 -49.2323 326° Northwest  Level Estimated
Fri 12:10:00 AM -4.5096 -49.2961 326° Northwest  Level Estimated
Fri 12:11:00 AM -4.4163 -49.3598 326° Northwest  Level Estimated
Fri 12:12:00 AM -4.3230 -49.4235 326° Northwest  Level Estimated
Fri 12:13:00 AM -4.2296 -49.4872 326° Northwest  Level Estimated
Fri 12:14:00 AM -4.1363 -49.5509 326° Northwest  Level Estimated
Fri 12:15:00 AM -4.0430 -49.6146 326° Northwest  Level Estimated
Fri 12:16:00 AM -3.9496 -49.6783 326° Northwest  Level Estimated
Fri 12:17:00 AM -3.8563 -49.7419 326° Northwest  Level Estimated
Fri 12:18:00 AM -3.7629 -49.8056 326° Northwest  Level Estimated
Fri 12:19:00 AM -3.6696 -49.8692 326° Northwest  Level Estimated
Fri 12:20:00 AM -3.5762 -49.9328 326° Northwest  Level Estimated
Fri 12:21:00 AM -3.4828 -49.9964 326° Northwest  Level Estimated
Fri 12:22:00 AM -3.3895 -50.0600 326° Northwest  Level Estimated
Fri 12:23:00 AM -3.2961 -50.1236 326° Northwest  Level Estimated
Fri 12:24:00 AM -3.2027 -50.1871 326° Northwest  Level Estimated
Fri 12:25:00 AM -3.1093 -50.2507 326° Northwest  Level Estimated
Fri 12:26:00 AM -3.0159 -50.3142 326° Northwest  Level Estimated
Fri 12:27:00 AM -2.9225 -50.3777 326° Northwest  Level Estimated
Fri 12:28:00 AM -2.8291 -50.4412 326° Northwest  Level Estimated
Fri 12:29:00 AM -2.7357 -50.5048 326° Northwest  Level Estimated
Fri 12:30:00 AM -2.6423 -50.5683 326° Northwest  Level Estimated
Fri 12:31:00 AM -2.5489 -50.6317 326° Northwest  Level Estimated
Fri 12:32:00 AM -2.4555 -50.6952 326° Northwest  Level Estimated
Fri 12:33:00 AM -2.3621 -50.7587 326° Northwest  Level Estimated
Fri 12:34:00 AM -2.2687 -50.8222 326° Northwest  Level Estimated
Fri 12:35:00 AM -2.1753 -50.8856 326° Northwest  Level Estimated
Fri 12:36:00 AM -2.0819 -50.9491 326° Northwest  Level Estimated
Fri 12:37:00 AM -1.9885 -51.0125 326° Northwest  Level Estimated
Fri 12:38:00 AM -1.8950 -51.0759 326° Northwest  Level Estimated
Fri 12:39:00 AM -1.8016 -51.1393 326° Northwest  Level Estimated
Fri 12:40:00 AM -1.7082 -51.2028 326° Northwest  Level Estimated
Fri 12:41:00 AM -1.6148 -51.2662 326° Northwest  Level Estimated
Fri 12:42:00 AM -1.5213 -51.3296 326° Northwest  Level Estimated
Fri 12:43:00 AM -1.4279 -51.3930 326° Northwest  Level Estimated
Fri 12:44:00 AM -1.3345 -51.4564 326° Northwest  Level Estimated
Fri 12:45:00 AM -1.2410 -51.5197 326° Northwest  Level Estimated
Fri 12:46:00 AM -1.1476 -51.5831 326° Northwest  Level Estimated
Fri 12:47:00 AM -1.0541 -51.6465 326° Northwest  Level Estimated
Fri 12:48:00 AM -0.9607 -51.7099 326° Northwest  Level Estimated
Fri 12:49:00 AM -0.8673 -51.7733 326° Northwest  Level Estimated
Fri 12:50:00 AM -0.7738 -51.8366 326° Northwest  Level Estimated
Fri 12:51:00 AM -0.6804 -51.9000 326° Northwest  Level Estimated
Fri 12:52:00 AM -0.5869 -51.9634 326° Northwest  Level Estimated
Fri 12:53:00 AM -0.4935 -52.0267 326° Northwest  Level Estimated
Fri 12:54:00 AM -0.4000 -52.0901 326° Northwest  Level Estimated
Fri 12:55:00 AM -0.3066 -52.1534 326° Northwest  Level Estimated
Fri 12:56:00 AM -0.2131 -52.2168 326° Northwest  Level Estimated
Fri 12:57:00 AM -0.1197 -52.2802 326° Northwest  Level Estimated
Fri 12:58:00 AM -0.0262 -52.3435 326° Northwest  Level Estimated
Fri 12:59:00 AM 0.0672 -52.4069 326° Northwest  Level Estimated
Fri 01:00:00 AM 0.1607 -52.4702 326° Northwest  Level Estimated
Fri 01:01:00 AM 0.2541 -52.5336 326° Northwest  Level Estimated
Fri 01:02:00 AM 0.3476 -52.5970 326° Northwest  Level Estimated
Fri 01:03:00 AM 0.4410 -52.6603 326° Northwest  Level Estimated
Fri 01:04:00 AM 0.5345 -52.7237 326° Northwest  Level Estimated
Fri 01:05:00 AM 0.6279 -52.7870 326° Northwest  Level Estimated
Fri 01:06:00 AM 0.7214 -52.8504 326° Northwest  Level Estimated
Fri 01:07:00 AM 0.8148 -52.9138 326° Northwest  Level Estimated
Fri 01:08:00 AM 0.9083 -52.9771 326° Northwest  Level Estimated
Fri 01:09:00 AM 1.0017 -53.0405 326° Northwest  Level Estimated
Fri 01:10:00 AM 1.0951 -53.1039 326° Northwest  Level Estimated
Fri 01:11:00 AM 1.1886 -53.1673 326° Northwest  Level Estimated
Fri 01:12:00 AM 1.2820 -53.2307 326° Northwest  Level Estimated
Fri 01:13:00 AM 1.3755 -53.2940 326° Northwest  Level Estimated
Fri 01:14:00 AM 1.4689 -53.3574 326° Northwest  Level Estimated
Fri 01:15:00 AM 1.5623 -53.4208 326° Northwest  Level Estimated
Fri 01:16:00 AM 1.6558 -53.4843 326° Northwest  Level Estimated
Fri 01:17:00 AM 1.7492 -53.5477 326° Northwest  Level Estimated
Fri 01:18:00 AM 1.8426 -53.6111 326° Northwest  Level Estimated
Fri 01:19:00 AM 1.9361 -53.6745 326° Northwest  Level Estimated
Fri 01:20:00 AM 2.0295 -53.7379 326° Northwest  Level Estimated
Fri 01:21:00 AM 2.1229 -53.8014 326° Northwest  Level Estimated
Fri 01:22:00 AM 2.2163 -53.8648 326° Northwest  Level Estimated
Fri 01:23:00 AM 2.3097 -53.9283 326° Northwest  Level Estimated
Fri 01:24:00 AM 2.4031 -53.9917 326° Northwest  Level Estimated
Fri 01:25:00 AM 2.4966 -54.0552 326° Northwest  Level Estimated
Fri 01:26:00 AM 2.5900 -54.1187 326° Northwest  Level Estimated
Fri 01:27:00 AM 2.6834 -54.1822 326° Northwest  Level Estimated
Fri 01:28:00 AM 2.7768 -54.2457 326° Northwest  Level Estimated
Fri 01:29:00 AM 2.8702 -54.3092 326° Northwest  Level Estimated
Fri 01:30:00 AM 2.9636 -54.3727 326° Northwest  Level Estimated
Fri 01:31:00 AM 3.0569 -54.4362 326° Northwest  Level Estimated
Fri 01:32:00 AM 3.1503 -54.4998 326° Northwest  Level Estimated
Fri 01:33:00 AM 3.2437 -54.5633 326° Northwest  Level Estimated
Fri 01:34:00 AM 3.3371 -54.6269 326° Northwest  Level Estimated
Fri 01:35:00 AM 3.4305 -54.6905 326° Northwest  Level Estimated
Fri 01:36:00 AM 3.5238 -54.7541 326° Northwest  Level Estimated
Fri 01:37:00 AM 3.6172 -54.8177 326° Northwest  Level Estimated
Fri 01:38:00 AM 3.7106 -54.8813 326° Northwest  Level Estimated
Fri 01:39:00 AM 3.8039 -54.9449 326° Northwest  Level Estimated
Fri 01:40:00 AM 3.8973 -55.0086 326° Northwest  Level Estimated
Fri 01:41:00 AM 3.9906 -55.0722 326° Northwest  Level Estimated
Fri 01:42:00 AM 4.0840 -55.1359 326° Northwest  Level Estimated
Fri 01:43:00 AM 4.1773 -55.1996 326° Northwest  Level Estimated
Fri 01:44:00 AM 4.2706 -55.2633 326° Northwest  Level Estimated
Fri 01:45:00 AM 4.3639 -55.3270 326° Northwest  Level Estimated
Fri 01:46:00 AM 4.4573 -55.3907 326° Northwest  Level Estimated
Fri 01:47:00 AM 4.5506 -55.4545 326° Northwest  Level Estimated
Fri 01:48:00 AM 4.6439 -55.5183 326° Northwest  Level Estimated
Fri 01:49:00 AM 4.7372 -55.5820 326° Northwest  Level Estimated
Fri 01:50:00 AM 4.8305 -55.6458 326° Northwest  Level Estimated
Fri 01:51:00 AM 4.9238 -55.7097 326° Northwest  Level Estimated
Fri 01:52:00 AM 5.0171 -55.7735 326° Northwest  Level Estimated
Fri 01:53:00 AM 5.1104 -55.8373 326° Northwest  Level Estimated
Fri 01:54:00 AM 5.2036 -55.9012 326° Northwest  Level Estimated
Fri 01:55:00 AM 5.2969 -55.9651 326° Northwest  Level Estimated
Fri 01:56:00 AM 5.3902 -56.0290 326° Northwest  Level Estimated
Fri 01:57:00 AM 5.4834 -56.0929 326° Northwest  Level Estimated
Fri 01:58:00 AM 5.5767 -56.1569 326° Northwest  Level Estimated
Fri 01:59:00 AM 5.6699 -56.2209 326° Northwest  Level Estimated
Fri 02:00:00 AM 5.7631 -56.2849 326° Northwest  Level Estimated
Fri 02:01:00 AM 5.8564 -56.3489 326° Northwest  Level Estimated
Fri 02:02:00 AM 5.9496 -56.4129 326° Northwest  Level Estimated
Fri 02:03:00 AM 6.0428 -56.4770 326° Northwest  Level Estimated
Fri 02:04:00 AM 6.1360 -56.5410 326° Northwest  Level Estimated
Fri 02:05:00 AM 6.2292 -56.6051 326° Northwest  Level Estimated
Fri 02:06:00 AM 6.3224 -56.6693 326° Northwest  Level Estimated
Fri 02:07:00 AM 6.4156 -56.7334 326° Northwest  Level Estimated
Fri 02:08:00 AM 6.5087 -56.7976 326° Northwest  Level Estimated
Fri 02:09:00 AM 6.6019 -56.8618 326° Northwest  Level Estimated
Fri 02:10:00 AM 6.6950 -56.9260 326° Northwest  Level Estimated
Fri 02:11:00 AM 6.7882 -56.9902 326° Northwest  Level Estimated
Fri 02:12:00 AM 6.8813 -57.0545 326° Northwest  Level Estimated
Fri 02:13:00 AM 6.9745 -57.1188 326° Northwest  Level Estimated
Fri 02:14:00 AM 7.0676 -57.1831 326° Northwest  Level Estimated
Fri 02:15:00 AM 7.1607 -57.2475 326° Northwest  Level Estimated
Fri 02:16:00 AM 7.2538 -57.3118 326° Northwest  Level Estimated
Fri 02:17:00 AM 7.3469 -57.3762 326° Northwest  Level Estimated
Fri 02:18:00 AM 7.4400 -57.4406 326° Northwest  Level Estimated
Fri 02:19:00 AM 7.5331 -57.5051 326° Northwest  Level Estimated
Fri 02:20:00 AM 7.6261 -57.5696 326° Northwest  Level Estimated
Fri 02:21:00 AM 7.7192 -57.6341 326° Northwest  Level Estimated
Fri 02:22:00 AM 7.8123 -57.6986 326° Northwest  Level Estimated
Fri 02:23:00 AM 7.9053 -57.7632 325° Northwest  Level Estimated
Fri 02:24:00 AM 7.9983 -57.8278 325° Northwest  Level Estimated
Fri 02:25:00 AM 8.0913 -57.8924 325° Northwest  Level Estimated
Fri 02:26:00 AM 8.1844 -57.9570 325° Northwest  Level Estimated
Fri 02:27:00 AM 8.2774 -58.0217 325° Northwest  Level Estimated
Fri 02:28:00 AM 8.3703 -58.0864 325° Northwest  Level Estimated
Fri 02:29:00 AM 8.4633 -58.1512 325° Northwest  Level Estimated
Fri 02:30:00 AM 8.5639 -58.2213 325° Northwest  Level Estimated
Fri 02:31:00 AM 8.6645 -58.2914 325° Northwest  Level Estimated
Fri 02:32:00 AM 8.7651 -58.3616 325° Northwest  Level Estimated
Fri 02:33:00 AM 8.8657 -58.4318 325° Northwest  Level Estimated
Fri 02:34:00 AM 8.9663 -58.5021 325° Northwest  Level Estimated
Fri 02:35:00 AM 9.0668 -58.5724 325° Northwest  Level Estimated
Fri 02:36:00 AM 9.1674 -58.6427 325° Northwest  Level Estimated
Fri 02:37:00 AM 9.2679 -58.7131 325° Northwest  Level Estimated
Fri 02:38:00 AM 9.3684 -58.7835 325° Northwest  Level Estimated
Fri 02:39:00 AM 9.4689 -58.8540 325° Northwest  Level Estimated
Fri 02:40:00 AM 9.5694 -58.9245 325° Northwest  Level Estimated
Fri 02:41:00 AM 9.6699 -58.9950 325° Northwest  Level Estimated
Fri 02:42:00 AM 9.7703 -59.0656 325° Northwest  Level Estimated
Fri 02:43:00 AM 9.8708 -59.1362 325° Northwest  Level Estimated
Fri 02:44:00 AM 9.9712 -59.2069 325° Northwest  Level Estimated
Fri 02:45:00 AM 10.0716 -59.2776 325° Northwest  Level Estimated
Fri 02:46:00 AM 10.1720 -59.3484 325° Northwest  Level Estimated
Fri 02:47:00 AM 10.2724 -59.4192 325° Northwest  Level Estimated
Fri 02:48:00 AM 10.3729 -59.4901 325° Northwest  Level Estimated
Fri 02:49:00 AM 10.4733 -59.5611 325° Northwest  Level Estimated
Fri 02:50:00 AM 10.5738 -59.6321 325° Northwest  Level Estimated
Fri 02:51:00 AM 10.6742 -59.7031 325° Northwest  Level Estimated
Fri 02:52:00 AM 10.7746 -59.7742 325° Northwest  Level Estimated
Fri 02:53:00 AM 10.8750 -59.8454 325° Northwest  Level Estimated
Fri 02:53:59 AM 12.2780 -62.0370 325° Northwest 439 505 36,000  Level FlightAware ADS-B
Fri 02:54:00 AM 10.9754 -59.9166 325° Northwest  Level Estimated
Fri 02:55:19 AM 12.4130 -62.1370 324° Northwest 439 505 36,000  Level FlightAware ADS-B
Fri 02:55:54 AM 12.4680 -62.1790 323° Northwest 439 505 36,000  Level FlightAware ADS-B
Fri 02:56:44 AM 12.5520 -62.2430 323° Northwest 438 504 36,000  Level FlightAware ADS-B
Fri 02:57:29 AM 12.6130 -62.2880 324° Northwest 437 503 36,000  Level FlightAware ADS-B
Fri 02:57:59 AM 12.6730 -62.3340 323° Northwest 434 499 36,000  Level FlightAware ADS-B
Fri 02:58:49 AM 12.7560 -62.3970 323° Northwest 433 498 36,000  Level FlightAware ADS-B
Fri 02:59:24 AM 12.8070 -62.4360 323° Northwest 431 496 36,000  Level FlightAware ADS-B
Fri 03:00:27 AM 12.9080 -62.5130 323° Northwest 431 496 36,000  Level FlightAware ADS-B
Fri 03:01:02 AM 12.9690 -62.5590 324° Northwest 431 496 36,000  Level FlightAware ADS-B
Fri 03:02:07 AM 13.0720 -62.6370 324° Northwest 432 497 36,000  Level FlightAware ADS-B
Fri 03:02:52 AM 13.1460 -62.6930 324° Northwest 434 499 36,000  Level FlightAware ADS-B
Fri 03:03:32 AM 13.2110 -62.7420 324° Northwest 434 499 36,000  Level FlightAware ADS-B
Fri 03:04:12 AM 13.2750 -62.7910 323° Northwest 435 501 36,000  Level FlightAware ADS-B
Fri 03:04:57 AM 13.3460 -62.8450 323° Northwest 437 503 36,000  Level FlightAware ADS-B
Fri 03:05:32 AM 13.4040 -62.8900 323° Northwest 437 503 36,000  Level FlightAware ADS-B
Fri 03:06:17 AM 13.4790 -62.9470 324° Northwest 437 503 36,000  Level FlightAware ADS-B
Fri 03:07:02 AM 13.5520 -63.0020 324° Northwest 437 503 36,000  Level FlightAware ADS-B
Fri 03:07:42 AM 13.6130 -63.0480 324° Northwest 437 503 36,000  Level FlightAware ADS-B
Fri 03:08:27 AM 13.6900 -63.1070 323° Northwest 436 502 36,000  Level FlightAware ADS-B
Fri 03:09:02 AM 13.7470 -63.1510 323° Northwest 436 502 36,000  Level FlightAware ADS-B
Fri 03:09:47 AM 13.8210 -63.2070 324° Northwest 434 499 36,000  Level FlightAware ADS-B
Fri 03:10:32 AM 13.8930 -63.2610 324° Northwest 433 498 36,000  Level FlightAware ADS-B
Fri 03:11:12 AM 13.9580 -63.3110 323° Northwest 432 497 36,000  Level FlightAware ADS-B
Fri 03:11:52 AM 14.0190 -63.3580 323° Northwest 432 497 36,000  Level FlightAware ADS-B
Fri 03:12:37 AM 14.0900 -63.4120 324° Northwest 432 497 36,000  Level FlightAware ADS-B
Fri 03:13:12 AM 14.1510 -63.4580 324° Northwest 431 496 36,000  Level FlightAware ADS-B
Fri 03:14:02 AM 14.2310 -63.5190 324° Northwest 430 495 36,000  Level FlightAware ADS-B
Fri 03:14:42 AM 14.2950 -63.5680 323° Northwest 430 495 36,000  Level FlightAware ADS-B
Fri 03:15:22 AM 14.3580 -63.6150 324° Northwest 429 494 36,000  Level FlightAware ADS-B
Fri 03:16:07 AM 14.4270 -63.6680 323° Northwest 428 493 36,000  Level FlightAware ADS-B
Fri 03:17:17 AM 14.5420 -63.7570 323° Northwest 425 489 36,000  Level FlightAware ADS-B
Fri 03:17:52 AM 14.5920 -63.7960 323° Northwest 425 489 36,000  Level FlightAware ADS-B
Fri 03:18:52 AM 14.6880 -63.8680 324° Northwest 425 489 36,000  Level FlightAware ADS-B
Fri 03:19:37 AM 14.6880 -63.8680 324° Northwest 426 490 36,000  Level FlightAware ADS-B
Fri 03:20:17 AM 14.8180 -63.9680 323° Northwest 426 490 36,000  Level FlightAware ADS-B
Fri 03:20:57 AM 14.8840 -64.0190 323° Northwest 425 489 36,000  Level FlightAware ADS-B
Fri 03:21:42 AM 14.9480 -64.0680 324° Northwest 425 489 36,000  Level FlightAware ADS-B
Fri 03:22:27 AM 15.0330 -64.1330 324° Northwest 427 491 36,000  Level FlightAware ADS-B
Fri 03:23:12 AM 15.1010 -64.1780 327° Northwest 428 493 36,000  Level FlightAware ADS-B
Fri 03:24:02 AM 15.1710 -64.2250 327° Northwest 428 493 36,000  Level FlightAware ADS-B
Fri 03:24:42 AM 15.2280 -64.2630 327° Northwest 428 493 36,000  Level FlightAware ADS-B
Fri 03:25:22 AM 15.2840 -64.3010 327° Northwest 428 493 36,000  Level FlightAware ADS-B
Fri 03:26:12 AM 15.3550 -64.3490 327° Northwest 428 493 36,000  Level FlightAware ADS-B
Fri 03:26:52 AM 15.4110 -64.3870 327° Northwest 428 493 36,000  Level FlightAware ADS-B
Fri 03:27:32 AM 15.4680 -64.4250 327° Northwest 428 493 36,000  Level FlightAware ADS-B
Fri 03:28:12 AM 15.5240 -64.4630 327° Northwest 428 493 36,000  Level FlightAware ADS-B
Fri 03:28:52 AM 15.5810 -64.5010 327° Northwest 428 493 36,000  Level FlightAware ADS-B
Fri 03:29:42 AM 15.6510 -64.5490 327° Northwest 428 493 36,000  Level FlightAware ADS-B
Fri 03:30:22 AM 15.7080 -64.5870 327° Northwest 428 493 36,000  Level FlightAware ADS-B
Fri 03:31:02 AM 15.7640 -64.6250 327° Northwest 428 493 36,000  Level FlightAware ADS-B
Fri 03:31:42 AM 15.8210 -64.6630 327° Northwest 428 493 36,000  Level FlightAware ADS-B
Fri 03:32:22 AM 15.8770 -64.7010 327° Northwest 428 493 36,000  Level FlightAware ADS-B
Fri 03:32:39 AM 16.0333 -64.8167 327° Northwest 450 518 36,000  Level San Juan Center
Fri 03:33:40 AM 16.1167 -64.8833 322° Northwest 440 506 36,000  Level San Juan Center
Fri 03:34:40 AM 16.2333 -64.9500 331° Northwest 430 495 36,000  Level San Juan Center
Fri 03:36:41 AM 16.4333 -65.0833 327° Northwest 440 506 36,000  Level San Juan Center
Fri 03:37:41 AM 16.5333 -65.1500 327° Northwest 430 495 36,000  Level San Juan Center
Fri 03:38:41 AM 16.6333 -65.2167 327° Northwest 430 495 36,000  Level San Juan Center
Fri 03:43:52 AM 17.2130 -65.5720 327° Northwest 429 494 36,000  Level FlightAware ADS-B
Fri 03:44:32 AM 17.2790 -65.6160 328° Northwest 429 494 36,000  Level FlightAware ADS-B
Fri 03:45:17 AM 17.3560 -65.6680 327° Northwest 429 494 36,000  Level FlightAware ADS-B
Fri 03:45:57 AM 17.4230 -65.7140 327° Northwest 427 491 36,000  Level FlightAware ADS-B
Fri 03:46:42 AM 17.4970 -65.7640 327° Northwest 427 491 36,000  Level FlightAware ADS-B
Fri 03:47:22 AM 17.5630 -65.8100 326° Northwest 427 491 36,000  Level FlightAware ADS-B
Fri 03:48:02 AM 17.6300 -65.8550 327° Northwest 425 489 36,000  Level FlightAware ADS-B
Fri 03:48:47 AM 17.7030 -65.9050 327° Northwest 425 489 36,000  Level FlightAware ADS-B
Fri 03:49:27 AM 17.7690 -65.9510 326° Northwest 425 489 36,000  Level FlightAware ADS-B
Fri 03:50:12 AM 17.8460 -66.0030 327° Northwest 425 489 36,000  Level FlightAware ADS-B
Fri 03:50:52 AM 17.9110 -66.0480 327° Northwest 424 488 36,000  Level FlightAware ADS-B
Fri 03:51:32 AM 17.9780 -66.0930 327° Northwest 425 489 36,000  Level FlightAware ADS-B
Fri 03:52:17 AM 18.0510 -66.1430 327° Northwest 426 490 36,000  Level FlightAware ADS-B
Fri 03:52:57 AM 18.1160 -66.1880 327° Northwest 427 491 36,000  Level FlightAware ADS-B
Fri 03:53:42 AM 18.1920 -66.2410 326° Northwest 427 491 36,000  Level FlightAware ADS-B
Fri 03:54:22 AM 18.2590 -66.2870 327° Northwest 427 491 36,000  Level FlightAware ADS-B
Fri 03:55:02 AM 18.3240 -66.3330 326° Northwest 427 491 36,000  Level FlightAware ADS-B
Fri 03:55:47 AM 18.3970 -66.3840 326° Northwest 427 491 36,000  Level FlightAware ADS-B
Fri 03:56:27 AM 18.4630 -66.4320 325° Northwest 427 491 36,000  Level FlightAware ADS-B
Fri 03:57:12 AM 18.5350 -66.4830 326° Northwest 427 491 36,000  Level FlightAware ADS-B
Fri 03:57:52 AM 18.6040 -66.5320 326° Northwest 428 493 36,000  Level FlightAware ADS-B
Fri 03:58:37 AM 18.6770 -66.5830 327° Northwest 427 491 36,000  Level FlightAware ADS-B
Fri 03:59:12 AM 18.7370 -66.6240 327° Northwest 425 489 36,000  Level FlightAware ADS-B
Fri 03:59:57 AM 18.8080 -66.6730 327° Northwest 425 489 36,000  Level FlightAware ADS-B
Fri 04:00:42 AM 18.8840 -66.7270 326° Northwest 425 489 36,000  Level FlightAware ADS-B
Fri 04:01:22 AM 18.9500 -66.7720 327° Northwest 424 488 36,000  Level FlightAware ADS-B
Fri 04:02:02 AM 19.0160 -66.8190 326° Northwest 425 489 36,000  Level FlightAware ADS-B
Fri 04:02:47 AM 19.0880 -66.8690 327° Northwest 426 490 36,000  Level FlightAware ADS-B
Fri 04:03:27 AM 19.1550 -66.9160 326° Northwest 426 490 36,000  Level FlightAware ADS-B
Fri 04:04:12 AM 19.2300 -66.9680 327° Northwest 425 489 36,000  Level FlightAware ADS-B
Fri 04:04:52 AM 19.2950 -67.0130 327° Northwest 425 489 36,000  Level FlightAware ADS-B
Fri 04:05:32 AM 19.3610 -67.0600 326° Northwest 424 488 36,000  Level FlightAware ADS-B
Fri 04:06:17 AM 19.4350 -67.1110 327° Northwest 425 489 36,000  Level FlightAware ADS-B
Fri 04:06:57 AM 19.4990 -67.1560 326° Northwest 425 489 36,000  Level FlightAware ADS-B
Fri 04:07:42 AM 19.5760 -67.2090 327° Northwest 425 489 36,000  Level FlightAware ADS-B
Fri 04:08:22 AM 19.6420 -67.2560 326° Northwest 425 489 36,000  Level FlightAware ADS-B
Fri 04:09:02 AM 19.7070 -67.3010 327° Northwest 425 489 36,000  Level FlightAware ADS-B
Fri 04:09:47 AM 19.7800 -67.3520 327° Northwest 424 488 36,000  Level FlightAware ADS-B
Fri 04:10:27 AM 19.8450 -67.3970 327° Northwest 424 488 36,000  Level FlightAware ADS-B
Fri 04:11:07 AM 19.9120 -67.4440 327° Northwest 424 488 36,000  Level FlightAware ADS-B
Fri 04:11:52 AM 19.9870 -67.4960 327° Northwest 423 487 36,000  Level FlightAware ADS-B
Fri 04:12:32 AM 20.0530 -67.5430 326° Northwest 423 487 36,000  Level FlightAware ADS-B
Fri 04:13:12 AM 20.1080 -67.5820 326° Northwest 423 487 36,000  Level FlightAware ADS-B
Fri 04:13:57 AM 20.1900 -67.6390 327° Northwest 422 486 36,000  Level FlightAware ADS-B
Fri 04:14:42 AM 20.2570 -67.6870 326° Northwest 422 486 36,000  Level FlightAware ADS-B
Fri 04:15:22 AM 20.3120 -67.7270 326° Northwest 422 486 36,000  Level FlightAware ADS-B
Fri 04:16:02 AM 20.3670 -67.7660 326° Northwest 422 486 36,000  Level FlightAware ADS-B
Fri 04:16:47 AM 20.4670 -67.8350 327° Northwest 422 486 36,000  Level FlightAware ADS-B
Fri 04:17:27 AM 20.5250 -67.8770 326° Northwest 422 486 36,000  Level FlightAware ADS-B
Fri 04:18:07 AM 20.5800 -67.9160 326° Northwest 422 486 36,000  Level FlightAware ADS-B
Fri 04:18:47 AM 20.6350 -67.9560 326° Northwest 422 486 36,000  Level FlightAware ADS-B
Fri 04:19:37 AM 20.7040 -68.0050 326° Northwest 422 486 36,000  Level FlightAware ADS-B
Fri 04:20:17 AM 20.7590 -68.0450 326° Northwest 422 486 36,000  Level FlightAware ADS-B
Fri 04:20:57 AM 20.8140 -68.0850 326° Northwest 422 486 36,000  Level FlightAware ADS-B
Fri 04:21:37 AM 20.8690 -68.1250 326° Northwest 422 486 36,000  Level FlightAware ADS-B
Fri 04:22:17 AM 20.9240 -68.1640 326° Northwest 422 486 36,000  Level FlightAware ADS-B
Fri 04:23:07 AM 20.9930 -68.2140 326° Northwest 422 486 36,000  Level FlightAware ADS-B
Fri 04:23:47 AM 21.0480 -68.2540 326° Northwest 422 486 36,000  Level FlightAware ADS-B
Fri 04:24:27 AM 21.1030 -68.2930 327° Northwest 422 486 36,000  Level FlightAware ADS-B
Fri 04:25:07 AM 21.1580 -68.3330 326° Northwest 422 486 36,000  Level FlightAware ADS-B
Fri 04:25:57 AM 21.2270 -68.3830 326° Northwest 422 486 36,000  Level FlightAware ADS-B
Fri 04:26:37 AM 21.2820 -68.4230 326° Northwest 422 486 36,000  Level FlightAware ADS-B
Fri 04:27:27 AM 21.4050 -68.6494 326° Northwest 428 493 36,000  Level Miami Center
Fri 04:28:27 AM 21.4992 -68.7325 321° Northwest 428 493 36,000  Level Miami Center
Fri 04:29:27 AM 21.5889 -68.8142 320° Northwest 423 487 36,000  Level Miami Center
Fri 04:30:29 AM 21.6786 -68.8978 319° Northwest 423 487 36,000  Level Miami Center
Fri 04:31:27 AM 21.7683 -68.9817 319° Northwest 423 487 36,000  Level Miami Center
Fri 04:32:27 AM 21.8683 -69.0650 322° Northwest 428 493 36,000  Level Miami Center
Fri 04:33:30 AM 21.9517 -69.1428 319° Northwest 421 484 36,000  Level Miami Center
Fri 04:34:27 AM 22.0497 -69.2286 321° Northwest 428 493 36,000  Level Miami Center
Fri 04:35:28 AM 22.1414 -69.3106 320° Northwest 428 493 36,000  Level Miami Center
Fri 04:36:27 AM 22.2267 -69.3931 318° Northwest 423 487 36,000  Level Miami Center
Fri 04:37:29 AM 22.3203 -69.4728 322° Northwest 423 487 36,000  Level Miami Center
Fri 04:38:27 AM 22.4142 -69.5617 319° Northwest 423 487 36,000  Level Miami Center
Fri 04:39:27 AM 22.5036 -69.6419 320° Northwest 423 487 36,000  Level Miami Center
Fri 04:40:27 AM 22.5908 -69.7247 319° Northwest 423 487 36,000  Level Miami Center
Fri 04:41:29 AM 22.6844 -69.8050 322° Northwest 423 487 36,000  Level Miami Center
Fri 04:42:27 AM 22.7736 -69.8881 319° Northwest 423 487 36,000  Level Miami Center
Fri 04:43:27 AM 22.8631 -69.9731 319° Northwest 423 487 36,000  Level Miami Center
Fri 04:44:27 AM 22.9544 -70.0539 321° Northwest 423 487 36,000  Level Miami Center
Fri 04:45:29 AM 23.0439 -70.1414 318° Northwest 423 487 36,000  Level Miami Center
Fri 04:46:28 AM 23.1308 -70.2181 321° Northwest 423 487 36,000  Level Miami Center
Fri 04:47:29 AM 23.2219 -70.3036 319° Northwest 417 480 36,000  Level Miami Center
Fri 04:48:28 AM 23.3114 -70.3894 319° Northwest 425 489 36,000  Level Miami Center
Fri 04:49:29 AM 23.4006 -70.4731 319° Northwest 425 489 36,000  Level Miami Center
Fri 04:50:27 AM 23.4894 -70.5547 320° Northwest 420 483 36,000  Level Miami Center
Fri 04:51:27 AM 23.5783 -70.6339 321° Northwest 420 483 36,000  Level Miami Center
Fri 04:52:28 AM 23.6675 -70.7203 318° Northwest 420 483 36,000  Level Miami Center
Fri 04:53:28 AM 23.7544 -70.8044 318° Northwest 420 483 36,000  Level Miami Center
Fri 04:54:29 AM 23.8411 -70.8864 319° Northwest 420 483 36,000  Level Miami Center
Fri 04:55:27 AM 23.9303 -70.9731 318° Northwest 420 483 36,000  Level Miami Center
Fri 04:56:29 AM 24.0169 -71.0531 320° Northwest 420 483 36,000  Level Miami Center
Fri 04:57:29 AM 24.1036 -71.1378 318° Northwest 420 483 36,000  Level Miami Center
Fri 04:58:27 AM 24.1922 -71.2156 321° Northwest 420 483 36,000  Level Miami Center
Fri 04:59:27 AM 24.2811 -71.3028 318° Northwest 419 482 36,000  Level Miami Center
Fri 05:00:30 AM 24.3697 -71.3875 319° Northwest 419 482 36,000  Level Miami Center
Fri 05:01:29 AM 24.4561 -71.4658 320° Northwest 419 482 36,000  Level Miami Center
Fri 05:02:27 AM 24.5408 -71.5536 317° Northwest 419 482 36,000  Level Miami Center
Fri 05:03:28 AM 24.6275 -71.6411 317° Northwest 414 476 36,000  Level Miami Center
Fri 05:04:29 AM 24.7139 -71.7219 320° Northwest 414 476 36,000  Level Miami Center
Fri 05:05:30 AM 24.8003 -71.8078 318° Northwest 414 476 36,000  Level Miami Center
Fri 05:06:27 AM 24.8886 -71.8842 322° Northwest 409 471 36,000  Level Miami Center
Fri 05:07:30 AM 24.9644 -71.9703 314° West 401 461 36,000  Level Miami Center
Fri 05:08:27 AM 25.0733 -72.0417 329° Northwest 348 400 36,000  Level Miami Center
Fri 05:09:27 AM 25.0000 -72.0000 330° Northwest 422 486 36,000  Level New York Oceanic (ODAPS)
Fri 05:16:00 AM 25.9172 -72.5833 330° Northwest 422 486 36,000  Level FlightAware Transoceanic
Fri 05:17:00 AM 26.0189 -72.6487 330° Northwest 422 486 36,000  Level FlightAware Transoceanic
Fri 05:18:00 AM 26.1207 -72.7141 330° Northwest 422 486 36,000  Level FlightAware Transoceanic
Fri 05:19:00 AM 26.2224 -72.7797 330° Northwest 422 486 36,000  Level FlightAware Transoceanic
Fri 05:20:00 AM 26.3241 -72.8455 330° Northwest 422 486 36,000  Level FlightAware Transoceanic
Fri 05:21:00 AM 26.4257 -72.9113 330° Northwest 422 486 36,000  Level FlightAware Transoceanic
Fri 05:22:00 AM 26.5273 -72.9772 330° Northwest 422 486 36,000  Level FlightAware Transoceanic
Fri 05:23:00 AM 26.6289 -73.0433 330° Northwest 422 486 36,000  Level FlightAware Transoceanic
Fri 05:24:00 AM 26.7305 -73.1095 330° Northwest 422 486 36,000  Level FlightAware Transoceanic
Fri 05:25:00 AM 26.8320 -73.1758 330° Northwest 422 486 36,000  Level FlightAware Transoceanic
Fri 05:26:00 AM 26.9335 -73.2422 330° Northwest 422 486 36,000  Level FlightAware Transoceanic
Fri 05:27:00 AM 27.0350 -73.3087 330° Northwest 422 486 36,000  Level FlightAware Transoceanic
Fri 05:28:00 AM 27.1364 -73.3754 330° Northwest 422 486 36,000  Level FlightAware Transoceanic
Fri 05:29:00 AM 27.2378 -73.4421 330° Northwest 422 486 36,000  Level FlightAware Transoceanic
Fri 05:30:00 AM 27.3391 -73.5090 330° Northwest 422 486 36,000  Level FlightAware Transoceanic
Fri 05:31:00 AM 27.4405 -73.5760 330° Northwest 422 486 36,000  Level FlightAware Transoceanic
Fri 05:32:00 AM 27.5418 -73.6432 330° Northwest 422 486 36,000  Level FlightAware Transoceanic
Fri 05:33:00 AM 27.6431 -73.7104 330° Northwest 422 486 36,000  Level FlightAware Transoceanic
Fri 05:34:00 AM 27.7443 -73.7778 329° Northwest 422 486 36,000  Level FlightAware Transoceanic
Fri 05:35:00 AM 27.8455 -73.8453 329° Northwest 422 486 36,000  Level FlightAware Transoceanic
Fri 05:36:00 AM 27.9467 -73.9130 329° Northwest 422 486 36,000  Level FlightAware Transoceanic
Fri 05:37:00 AM 28.0478 -73.9808 329° Northwest 422 486 36,000  Level FlightAware Transoceanic
Fri 05:38:00 AM 28.1489 -74.0486 329° Northwest 422 486 36,000  Level FlightAware Transoceanic
Fri 05:39:00 AM 28.2500 -74.1167 322° Northwest 422 486 36,000  Level FlightAware Transoceanic
Fri 05:40:00 AM 28.3369 -74.1944 322° Northwest 422 486 36,000  Level FlightAware Transoceanic
Fri 05:41:00 AM 28.4238 -74.2723 322° Northwest 422 486 36,000  Level FlightAware Transoceanic
Fri 05:42:00 AM 28.5107 -74.3503 322° Northwest 422 486 36,000  Level FlightAware Transoceanic
Fri 05:43:00 AM 28.5975 -74.4284 322° Northwest 422 486 36,000  Level FlightAware Transoceanic
Fri 05:44:00 AM 28.6842 -74.5067 322° Northwest 422 486 36,000  Level FlightAware Transoceanic
Fri 05:45:00 AM 28.7709 -74.5850 322° Northwest 422 486 36,000  Level FlightAware Transoceanic
Fri 05:46:00 AM 28.8576 -74.6636 322° Northwest 422 486 36,000  Level FlightAware Transoceanic
Fri 05:47:00 AM 28.9442 -74.7422 322° Northwest 422 486 36,000  Level FlightAware Transoceanic
Fri 05:48:00 AM 29.0308 -74.8210 321° Northwest 422 486 36,000  Level FlightAware Transoceanic
Fri 05:49:00 AM 29.1173 -74.8999 321° Northwest 422 486 36,000  Level FlightAware Transoceanic
Fri 05:50:00 AM 29.2038 -74.9789 321° Northwest 422 486 36,000  Level FlightAware Transoceanic
Fri 05:51:00 AM 29.2902 -75.0581 321° Northwest 422 486 36,000  Level FlightAware Transoceanic
Fri 05:52:00 AM 29.3766 -75.1374 321° Northwest 422 486 36,000  Level FlightAware Transoceanic
Fri 05:53:00 AM 29.4629 -75.2169 321° Northwest 422 486 36,000  Level FlightAware Transoceanic
Fri 05:54:00 AM 29.5492 -75.2964 321° Northwest 422 486 36,000  Level FlightAware Transoceanic
Fri 05:54:36 AM 28.2500 -74.1167 322° Northwest 349 402 36,000  Level New York Oceanic (ODAPS)
Fri 05:55:00 AM 29.6355 -75.3762 321° Northwest 422 486 36,000  Level FlightAware Transoceanic
Fri 05:56:00 AM 29.7217 -75.4560 321° Northwest 422 486 36,000  Level FlightAware Transoceanic
Fri 05:57:00 AM 29.8078 -75.5360 321° Northwest 422 486 36,000  Level FlightAware Transoceanic
Fri 05:58:00 AM 29.8939 -75.6161 321° Northwest 422 486 36,000  Level FlightAware Transoceanic
Fri 05:59:00 AM 29.9800 -75.6964 321° Northwest 422 486 36,000  Level FlightAware Transoceanic
Fri 06:00:00 AM 29.7700 -75.5008 321° Northwest 349 402 36,000  Level FlightAware Transoceanic
Fri 06:01:00 AM 29.8456 -75.5712 321° Northwest 349 402 36,000  Level FlightAware Transoceanic
Fri 06:02:00 AM 29.9212 -75.6415 321° Northwest 349 402 36,000  Level FlightAware Transoceanic
Fri 06:03:00 AM 29.9968 -75.7121 321° Northwest 349 402 36,000  Level FlightAware Transoceanic
Fri 06:04:00 AM 30.0723 -75.7827 321° Northwest 349 402 36,000  Level FlightAware Transoceanic
Fri 06:05:00 AM 30.1477 -75.8534 321° Northwest 349 402 36,000  Level FlightAware Transoceanic
Fri 06:06:00 AM 30.2232 -75.9242 321° Northwest 349 402 36,000  Level FlightAware Transoceanic
Fri 06:07:00 AM 30.2986 -75.9952 321° Northwest 349 402 36,000  Level FlightAware Transoceanic
Fri 06:08:00 AM 30.3739 -76.0662 321° Northwest 349 402 36,000  Level FlightAware Transoceanic
Fri 06:09:00 AM 30.4492 -76.1374 321° Northwest 349 402 36,000  Level FlightAware Transoceanic
Fri 06:10:00 AM 30.5245 -76.2086 321° Northwest 349 402 36,000  Level FlightAware Transoceanic
Fri 06:10:27 AM 30.8272 -76.4828 321° Northwest 461 531 36,000  Level Jacksonville Center
Fri 06:11:00 AM 30.5998 -76.2800 321° Northwest 349 402 36,000  Level FlightAware Transoceanic
Fri 06:11:27 AM 30.9106 -76.5642 320° Northwest 421 484 36,000  Level Jacksonville Center
Fri 06:12:00 AM 30.6750 -76.3515 321° Northwest 349 402 36,000  Level FlightAware Transoceanic
Fri 06:12:27 AM 30.9936 -76.6386 322° Northwest 394 453 36,000  Level Jacksonville Center
Fri 06:13:00 AM 30.7501 -76.4231 321° Northwest 349 402 36,000  Level FlightAware Transoceanic
Fri 06:13:27 AM 31.0792 -76.7228 320° Northwest 388 447 36,000  Level Jacksonville Center
Fri 06:14:00 AM 30.8253 -76.4948 321° Northwest 349 402 36,000  Level FlightAware Transoceanic
Fri 06:14:27 AM 31.1603 -76.8047 319° Northwest 388 447 36,000  Level Jacksonville Center
Fri 06:15:27 AM 31.2414 -76.8869 319° Northwest 388 447 36,000  Level Jacksonville Center
Fri 06:16:27 AM 31.3244 -76.9617 322° Northwest 388 447 36,000  Level Jacksonville Center
Fri 06:17:27 AM 31.4072 -77.0417 320° Northwest 383 441 36,000  Level Jacksonville Center
Fri 06:18:27 AM 31.4900 -77.1167 322° Northwest 383 441 36,000  Level Jacksonville Center
Fri 06:19:27 AM 31.5731 -77.1969 321° Northwest 383 441 36,000  Level Jacksonville Center
Fri 06:20:27 AM 31.6575 -77.2675 325° Northwest 378 435 36,000  Level Jacksonville Center
Fri 06:21:27 AM 31.7364 -77.3531 317° Northwest 372 428 36,000  Level Jacksonville Center
Fri 06:22:27 AM 31.8192 -77.4336 320° Northwest 372 428 36,000  Level Jacksonville Center
Fri 06:23:27 AM 31.8931 -77.5000 323° Northwest 372 428 36,000  Level Jacksonville Center
Fri 06:24:27 AM 31.9758 -77.5808 320° Northwest 377 434 36,000  Level Jacksonville Center
Fri 06:29:47 AM 32.3560 -78.0710 320° Northwest 380 437 36,000  Level FlightAware ADS-B
Fri 06:30:27 AM 32.3790 -78.1480 289° West 380 437 36,000  Level FlightAware ADS-B
Fri 06:31:12 AM 32.4060 -78.2360 290° West 380 437 36,000  Level FlightAware ADS-B
Fri 06:31:52 AM 32.4300 -78.3160 290° West 378 435 36,000 -494 Level FlightAware ADS-B
Fri 06:32:37 AM 32.4560 -78.4030 290° West 376 433 35,300 -1,059 Descending FlightAware ADS-B
Fri 06:33:17 AM 32.4790 -78.4790 290° West 380 437 34,500 -1,341 Descending FlightAware ADS-B
Fri 06:34:02 AM 32.5070 -78.5700 290° West 387 445 33,400 -1,482 Descending FlightAware ADS-B
Fri 06:34:42 AM 32.5310 -78.6490 290° West 395 455 32,400 -1,482 Descending FlightAware ADS-B
Fri 06:35:27 AM 32.5580 -78.7430 289° West 402 463 31,300 -988 Descending FlightAware ADS-B
Fri 06:36:07 AM 32.5820 -78.8250 289° West 396 456 31,000 -225 Descending FlightAware ADS-B
Fri 06:36:47 AM 32.6060 -78.9060 289° West 394 453 31,000  Level FlightAware ADS-B
Fri 06:37:32 AM 32.6340 -79.0000 290° West 398 458 31,000  Level FlightAware ADS-B
Fri 06:38:12 AM 32.6590 -79.0830 290° West 401 461 31,000  Level FlightAware ADS-B
Fri 06:38:57 AM 32.6900 -79.1760 292° West 405 466 31,000  Level FlightAware ADS-B
Fri 06:39:37 AM 32.7420 -79.2390 314° West 414 476 31,000  Level FlightAware ADS-B
Fri 06:40:17 AM 32.8130 -79.2750 337° Northwest 421 484 31,000  Level FlightAware ADS-B
Fri 06:41:02 AM 32.8940 -79.3120 339° North 421 484 31,000  Level FlightAware ADS-B
Fri 06:41:42 AM 32.9650 -79.3440 339° North 420 483 31,000  Level FlightAware ADS-B
Fri 06:42:27 AM 33.0500 -79.3820 339° North 420 483 31,000  Level FlightAware ADS-B
Fri 06:43:07 AM 33.1220 -79.4150 339° North 419 482 31,000  Level FlightAware ADS-B
Fri 06:43:47 AM 33.1950 -79.4480 339° North 417 480 31,000  Level FlightAware ADS-B
Fri 06:44:32 AM 33.2760 -79.4850 339° North 415 478 31,000  Level FlightAware ADS-B
Fri 06:45:12 AM 33.3460 -79.5170 339° North 413 475 31,000  Level FlightAware ADS-B
Fri 06:45:57 AM 33.4290 -79.5550 339° North 412 474 31,000  Level FlightAware ADS-B
Fri 06:46:37 AM 33.5000 -79.5890 338° Northwest 412 474 31,000 -525 Level FlightAware ADS-B
Fri 06:47:17 AM 33.5690 -79.6210 339° North 406 467 30,300 -2,118 Descending FlightAware ADS-B
Fri 06:48:02 AM 33.6490 -79.6570 339° North 404 465 28,000 -3,000 Descending FlightAware ADS-B
Fri 06:48:47 AM 33.7260 -79.6930 339° North 395 455 25,800 -2,753 Descending FlightAware ADS-B
Fri 06:49:27 AM 33.7940 -79.7240 339° North 381 438 24,100 -1,906 Descending FlightAware ADS-B
Fri 06:50:12 AM 33.8660 -79.7570 339° North 359 413 23,100 -1,275 Descending FlightAware ADS-B
Fri 06:50:47 AM 33.9190 -79.7810 339° North 352 405 22,400 -1,200 Descending FlightAware ADS-B
Fri 06:51:32 AM 33.9880 -79.8130 339° North 351 404 21,500 -1,133 Descending FlightAware ADS-B
Fri 06:52:17 AM 34.0550 -79.8450 338° Northwest 352 405 20,700 -1,129 Descending FlightAware ADS-B
Fri 06:52:57 AM 34.1140 -79.8740 338° Northwest 348 400 19,900 -1,200 Descending FlightAware ADS-B
Fri 06:53:37 AM 34.1670 -79.9080 332° Northwest 341 392 19,100 -1,280 Descending FlightAware ADS-B
Fri 06:54:12 AM 34.2210 -79.9450 330° Northwest 342 394 18,300 -1,482 Descending FlightAware ADS-B
Fri 06:55:02 AM 34.2920 -79.9920 331° Northwest 342 394 17,000 -1,326 Descending FlightAware ADS-B
Fri 06:55:47 AM 34.3530 -80.0320 332° Northwest 342 394 16,200 -1,129 Descending FlightAware ADS-B
Fri 06:56:27 AM 34.4090 -80.0700 331° Northwest 339 390 15,400 -1,200 Descending FlightAware ADS-B
Fri 06:57:12 AM 34.4700 -80.1100 332° Northwest 333 383 14,500 -1,129 Descending FlightAware ADS-B
Fri 06:57:52 AM 34.5250 -80.1460 332° Northwest 330 380 13,800 -1,125 Descending FlightAware ADS-B
Fri 06:58:32 AM 34.5790 -80.1820 331° Northwest 330 380 13,000 -1,125 Descending FlightAware ADS-B
Fri 06:59:12 AM 34.6280 -80.2140 332° Northwest 326 375 12,300 -1,120 Descending FlightAware ADS-B
Fri 06:59:47 AM 34.6780 -80.2480 331° Northwest 314 361 11,600 -1,059 Descending FlightAware ADS-B
Fri 07:00:37 AM 34.7270 -80.3020 318° Northwest 285 328 10,800 -565 Descending FlightAware ADS-B
Fri 07:01:12 AM 34.7570 -80.3400 314° West 285 328 10,800 -494 Level FlightAware ADS-B
Fri 07:02:02 AM 34.8010 -80.3970 313° West 265 305 10,100 -467 Descending FlightAware ADS-B
Fri 07:02:42 AM 34.8290 -80.4340 313° West 265 305 10,100  Level FlightAware ADS-B
Fri 07:03:22 AM 34.8580 -80.4710 314° West 265 305 10,100 -2,274 Level FlightAware ADS-B
Fri 07:04:17 AM 34.9090 -80.5360 314° West 247 284 6,500 -2,700 Descending FlightAware ADS-B
Fri 07:04:42 AM 34.9260 -80.5650 306° West 247 284 6,500 -508 Level FlightAware ADS-B
Fri 07:05:16 AM 34.9158 -80.6369 306° West 249 287 6,000 -297 Descending Atlanta Center
Fri 07:06:23 AM 34.9594 -80.7086 307° West 248 285 6,000 -545 Level Atlanta Center
Fri 07:07:17 AM 34.9967 -80.7706 306° West 246 283 4,900 -992 Descending Atlanta Center
Fri 07:08:24 AM 35.0383 -80.8525 302° West 246 283 4,000 -686 Descending Atlanta Center
Fri 07:09:37 AM 35.0839 -80.9142 312° West 196 226 3,300 -729 Descending Atlanta Center
Fri 07:10:44 AM 35.1303 -80.9303 344° North 134 154 2,300 -896 Descending Atlanta Center

Login

Don't have an account? Register now (free) for customized features, flight alerts, and more!